sensor_id;sensor_type;location;lat;lon;timestamp;temperature;humidity
9975;DHT22;5028;50.974;4.968;2023-07-30T00:00:43;16.30;99.90
9975;DHT22;5028;50.974;4.968;2023-07-30T00:03:11;16.20;99.90
9975;DHT22;5028;50.974;4.968;2023-07-30T00:05:40;16.10;99.90
9975;DHT22;5028;50.974;4.968;2023-07-30T00:08:09;16.10;99.90
9975;DHT22;5028;50.974;4.968;2023-07-30T00:10:37;16.10;99.90
9975;DHT22;5028;50.974;4.968;2023-07-30T00:13:05;16.00;99.90
9975;DHT22;5028;50.974;4.968;2023-07-30T00:15:34;16.00;99.90
9975;DHT22;5028;50.974;4.968;2023-07-30T00:18:02;16.00;99.90
9975;DHT22;5028;50.974;4.968;2023-07-30T00:20:30;16.00;99.90
9975;DHT22;5028;50.974;4.968;2023-07-30T00:22:58;16.00;99.90
9975;DHT22;5028;50.974;4.968;2023-07-30T00:25:28;15.90;99.90
9975;DHT22;5028;50.974;4.968;2023-07-30T00:27:56;15.90;99.90
9975;DHT22;5028;50.974;4.968;2023-07-30T00:30:24;15.90;99.90
9975;DHT22;5028;50.974;4.968;2023-07-30T00:32:52;15.90;99.90
9975;DHT22;5028;50.974;4.968;2023-07-30T00:35:21;15.80;99.90
9975;DHT22;5028;50.974;4.968;2023-07-30T00:37:49;15.80;99.90
9975;DHT22;5028;50.974;4.968;2023-07-30T00:40:17;15.80;99.90
9975;DHT22;5028;50.974;4.968;2023-07-30T00:42:47;15.80;99.90
9975;DHT22;5028;50.974;4.968;2023-07-30T00:45:16;15.80;99.90
9975;DHT22;5028;50.974;4.968;2023-07-30T00:47:44;15.70;99.90
9975;DHT22;5028;50.974;4.968;2023-07-30T00:50:15;15.70;99.90
9975;DHT22;5028;50.974;4.968;2023-07-30T00:52:43;15.70;99.90
9975;DHT22;5028;50.974;4.968;2023-07-30T00:55:29;15.70;99.90
9975;DHT22;5028;50.974;4.968;2023-07-30T00:57:59;15.60;99.90
9975;DHT22;5028;50.974;4.968;2023-07-30T01:00:27;15.50;99.90
9975;DHT22;5028;50.974;4.968;2023-07-30T01:02:56;15.50;99.90
9975;DHT22;5028;50.974;4.968;2023-07-30T01:05:26;15.50;99.90
9975;DHT22;5028;50.974;4.968;2023-07-30T01:07:54;15.40;99.90
9975;DHT22;5028;50.974;4.968;2023-07-30T01:10:22;15.40;99.90
9975;DHT22;5028;50.974;4.968;2023-07-30T01:12:51;15.40;99.90
9975;DHT22;5028;50.974;4.968;2023-07-30T01:15:21;15.40;99.90
9975;DHT22;5028;50.974;4.968;2023-07-30T01:17:49;15.40;99.90
9975;DHT22;5028;50.974;4.968;2023-07-30T01:20:18;15.40;99.90
9975;DHT22;5028;50.974;4.968;2023-07-30T01:22:48;15.40;99.90
9975;DHT22;5028;50.974;4.968;2023-07-30T01:25:16;15.40;99.90
9975;DHT22;5028;50.974;4.968;2023-07-30T01:27:48;15.40;99.90
9975;DHT22;5028;50.974;4.968;2023-07-30T01:30:24;15.40;99.90
9975;DHT22;5028;50.974;4.968;2023-07-30T01:32:54;15.40;99.90
9975;DHT22;5028;50.974;4.968;2023-07-30T01:35:27;15.40;99.90
9975;DHT22;5028;50.974;4.968;2023-07-30T01:37:57;15.50;99.90
9975;DHT22;5028;50.974;4.968;2023-07-30T01:40:37;15.50;99.90
9975;DHT22;5028;50.974;4.968;2023-07-30T01:43:07;15.50;99.90
9975;DHT22;5028;50.974;4.968;2023-07-30T01:45:35;15.50;99.90
9975;DHT22;5028;50.974;4.968;2023-07-30T01:48:03;15.60;99.90
9975;DHT22;5028;50.974;4.968;2023-07-30T01:50:32;15.60;99.90
9975;DHT22;5028;50.974;4.968;2023-07-30T01:53:01;15.70;99.90
9975;DHT22;5028;50.974;4.968;2023-07-30T01:55:29;15.70;99.90
9975;DHT22;5028;50.974;4.968;2023-07-30T01:57:58;15.70;99.90
9975;DHT22;5028;50.974;4.968;2023-07-30T02:00:26;15.70;99.90
9975;DHT22;5028;50.974;4.968;2023-07-30T02:02:54;15.70;99.90
9975;DHT22;5028;50.974;4.968;2023-07-30T02:05:22;15.80;99.90
9975;DHT22;5028;50.974;4.968;2023-07-30T02:07:52;15.80;99.90
9975;DHT22;5028;50.974;4.968;2023-07-30T02:10:21;15.80;99.90
9975;DHT22;5028;50.974;4.968;2023-07-30T02:12:49;15.80;99.90
9975;DHT22;5028;50.974;4.968;2023-07-30T02:15:18;15.80;99.90
9975;DHT22;5028;50.974;4.968;2023-07-30T02:17:46;15.80;99.90
9975;DHT22;5028;50.974;4.968;2023-07-30T02:20:14;15.80;99.90
9975;DHT22;5028;50.974;4.968;2023-07-30T02:22:42;15.80;99.90
9975;DHT22;5028;50.974;4.968;2023-07-30T02:25:11;15.90;99.90
9975;DHT22;5028;50.974;4.968;2023-07-30T02:27:40;15.90;99.90
9975;DHT22;5028;50.974;4.968;2023-07-30T02:30:09;15.90;99.90
9975;DHT22;5028;50.974;4.968;2023-07-30T02:32:37;15.90;99.90
9975;DHT22;5028;50.974;4.968;2023-07-30T02:35:06;15.90;99.90
9975;DHT22;5028;50.974;4.968;2023-07-30T02:37:34;15.90;99.90
9975;DHT22;5028;50.974;4.968;2023-07-30T02:40:03;15.90;99.90
9975;DHT22;5028;50.974;4.968;2023-07-30T02:42:31;15.90;99.90
9975;DHT22;5028;50.974;4.968;2023-07-30T02:45:01;15.90;99.90
9975;DHT22;5028;50.974;4.968;2023-07-30T02:47:29;15.90;99.90
9975;DHT22;5028;50.974;4.968;2023-07-30T02:49:57;15.90;99.90
9975;DHT22;5028;50.974;4.968;2023-07-30T02:52:26;15.90;99.90
9975;DHT22;5028;50.974;4.968;2023-07-30T02:54:54;15.90;99.90
9975;DHT22;5028;50.974;4.968;2023-07-30T02:57:22;15.80;99.90
9975;DHT22;5028;50.974;4.968;2023-07-30T02:59:50;15.80;99.90
9975;DHT22;5028;50.974;4.968;2023-07-30T03:02:20;15.80;99.90
9975;DHT22;5028;50.974;4.968;2023-07-30T03:04:48;15.80;99.90
9975;DHT22;5028;50.974;4.968;2023-07-30T03:07:16;15.70;99.90
9975;DHT22;5028;50.974;4.968;2023-07-30T03:09:45;15.70;99.90
9975;DHT22;5028;50.974;4.968;2023-07-30T03:12:13;15.70;99.90
9975;DHT22;5028;50.974;4.968;2023-07-30T03:14:41;15.70;99.90
9975;DHT22;5028;50.974;4.968;2023-07-30T03:17:10;15.70;99.90
9975;DHT22;5028;50.974;4.968;2023-07-30T03:19:39;15.70;99.90
9975;DHT22;5028;50.974;4.968;2023-07-30T03:22:07;15.60;99.90
9975;DHT22;5028;50.974;4.968;2023-07-30T03:24:35;15.60;99.90
9975;DHT22;5028;50.974;4.968;2023-07-30T03:27:04;15.60;99.90
9975;DHT22;5028;50.974;4.968;2023-07-30T03:29:32;15.60;99.90
9975;DHT22;5028;50.974;4.968;2023-07-30T03:32:01;15.60;99.90
9975;DHT22;5028;50.974;4.968;2023-07-30T03:34:29;15.60;99.90
9975;DHT22;5028;50.974;4.968;2023-07-30T03:36:58;15.60;99.90
9975;DHT22;5028;50.974;4.968;2023-07-30T03:39:28;15.70;99.90
9975;DHT22;5028;50.974;4.968;2023-07-30T03:41:56;15.70;99.90
9975;DHT22;5028;50.974;4.968;2023-07-30T03:44:24;15.70;99.90
9975;DHT22;5028;50.974;4.968;2023-07-30T03:46:52;15.70;99.90
9975;DHT22;5028;50.974;4.968;2023-07-30T03:49:20;15.70;99.90
9975;DHT22;5028;50.974;4.968;2023-07-30T03:51:49;15.70;99.90
9975;DHT22;5028;50.974;4.968;2023-07-30T03:54:18;15.70;99.90
9975;DHT22;5028;50.974;4.968;2023-07-30T03:56:46;15.70;99.90
9975;DHT22;5028;50.974;4.968;2023-07-30T03:59:14;15.70;99.90
9975;DHT22;5028;50.974;4.968;2023-07-30T04:01:42;15.70;99.90
9975;DHT22;5028;50.974;4.968;2023-07-30T04:04:11;15.70;99.90
9975;DHT22;5028;50.974;4.968;2023-07-30T04:06:39;15.70;99.90
9975;DHT22;5028;50.974;4.968;2023-07-30T04:09:07;15.70;99.90
9975;DHT22;5028;50.974;4.968;2023-07-30T04:11:37;15.70;99.90
9975;DHT22;5028;50.974;4.968;2023-07-30T04:14:06;15.70;99.90
9975;DHT22;5028;50.974;4.968;2023-07-30T04:16:35;15.70;99.90
9975;DHT22;5028;50.974;4.968;2023-07-30T04:19:04;15.70;99.90
9975;DHT22;5028;50.974;4.968;2023-07-30T04:21:32;15.70;99.90
9975;DHT22;5028;50.974;4.968;2023-07-30T04:24:00;15.80;99.90
9975;DHT22;5028;50.974;4.968;2023-07-30T04:26:28;15.80;99.90
9975;DHT22;5028;50.974;4.968;2023-07-30T04:28:58;15.70;99.90
9975;DHT22;5028;50.974;4.968;2023-07-30T04:31:26;15.80;99.90
9975;DHT22;5028;50.974;4.968;2023-07-30T04:33:54;15.70;99.90
9975;DHT22;5028;50.974;4.968;2023-07-30T04:36:22;15.70;99.90
9975;DHT22;5028;50.974;4.968;2023-07-30T04:38:50;15.80;99.90
9975;DHT22;5028;50.974;4.968;2023-07-30T04:41:18;15.80;99.90
9975;DHT22;5028;50.974;4.968;2023-07-30T04:43:47;15.80;99.90
9975;DHT22;5028;50.974;4.968;2023-07-30T04:46:23;15.80;99.90
9975;DHT22;5028;50.974;4.968;2023-07-30T04:48:52;15.80;99.90
9975;DHT22;5028;50.974;4.968;2023-07-30T04:51:20;15.80;99.90
9975;DHT22;5028;50.974;4.968;2023-07-30T04:53:49;15.80;99.90
9975;DHT22;5028;50.974;4.968;2023-07-30T04:56:17;15.90;99.90
9975;DHT22;5028;50.974;4.968;2023-07-30T04:58:45;15.80;99.90
9975;DHT22;5028;50.974;4.968;2023-07-30T05:01:13;15.80;99.90
9975;DHT22;5028;50.974;4.968;2023-07-30T05:03:43;15.90;99.90
9975;DHT22;5028;50.974;4.968;2023-07-30T05:06:11;15.90;99.90
9975;DHT22;5028;50.974;4.968;2023-07-30T05:08:39;15.80;99.90
9975;DHT22;5028;50.974;4.968;2023-07-30T05:11:07;15.80;99.90
9975;DHT22;5028;50.974;4.968;2023-07-30T05:13:35;15.90;99.90
9975;DHT22;5028;50.974;4.968;2023-07-30T05:16:04;15.90;99.90
9975;DHT22;5028;50.974;4.968;2023-07-30T05:18:35;15.90;99.90
9975;DHT22;5028;50.974;4.968;2023-07-30T05:21:04;15.90;99.90
9975;DHT22;5028;50.974;4.968;2023-07-30T05:23:33;16.00;99.90
9975;DHT22;5028;50.974;4.968;2023-07-30T05:26:01;16.00;99.90
9975;DHT22;5028;50.974;4.968;2023-07-30T05:28:29;16.00;99.90
9975;DHT22;5028;50.974;4.968;2023-07-30T05:30:57;16.10;99.90
9975;DHT22;5028;50.974;4.968;2023-07-30T05:33:25;16.10;99.90
9975;DHT22;5028;50.974;4.968;2023-07-30T05:35:54;16.10;99.90
9975;DHT22;5028;50.974;4.968;2023-07-30T05:38:23;16.20;99.90
9975;DHT22;5028;50.974;4.968;2023-07-30T05:40:51;16.20;99.90
9975;DHT22;5028;50.974;4.968;2023-07-30T05:43:19;16.20;99.90
9975;DHT22;5028;50.974;4.968;2023-07-30T05:45:47;16.30;99.90
9975;DHT22;5028;50.974;4.968;2023-07-30T05:48:16;16.30;99.90
9975;DHT22;5028;50.974;4.968;2023-07-30T05:50:44;16.30;99.90
9975;DHT22;5028;50.974;4.968;2023-07-30T05:53:12;16.30;99.90
9975;DHT22;5028;50.974;4.968;2023-07-30T05:55:42;16.30;99.90
9975;DHT22;5028;50.974;4.968;2023-07-30T05:58:10;16.40;99.90
9975;DHT22;5028;50.974;4.968;2023-07-30T06:00:38;16.40;99.90
9975;DHT22;5028;50.974;4.968;2023-07-30T06:03:07;16.40;99.90
9975;DHT22;5028;50.974;4.968;2023-07-30T06:05:39;16.40;99.90
9975;DHT22;5028;50.974;4.968;2023-07-30T06:08:08;16.40;99.90
9975;DHT22;5028;50.974;4.968;2023-07-30T06:10:36;16.40;99.90
9975;DHT22;5028;50.974;4.968;2023-07-30T06:13:06;16.50;99.90
9975;DHT22;5028;50.974;4.968;2023-07-30T06:15:34;16.50;99.90
9975;DHT22;5028;50.974;4.968;2023-07-30T06:18:03;16.50;99.90
9975;DHT22;5028;50.974;4.968;2023-07-30T06:20:31;16.60;99.90
9975;DHT22;5028;50.974;4.968;2023-07-30T06:22:59;16.70;99.90
9975;DHT22;5028;50.974;4.968;2023-07-30T06:25:27;16.70;99.90
9975;DHT22;5028;50.974;4.968;2023-07-30T06:27:56;16.70;99.90
9975;DHT22;5028;50.974;4.968;2023-07-30T06:30:27;16.80;99.90
9975;DHT22;5028;50.974;4.968;2023-07-30T06:32:55;16.80;99.90
9975;DHT22;5028;50.974;4.968;2023-07-30T06:35:23;16.80;99.90
9975;DHT22;5028;50.974;4.968;2023-07-30T06:37:51;16.80;99.90
9975;DHT22;5028;50.974;4.968;2023-07-30T06:40:20;16.80;99.90
9975;DHT22;5028;50.974;4.968;2023-07-30T06:42:49;16.80;99.90
9975;DHT22;5028;50.974;4.968;2023-07-30T06:45:17;16.70;99.90
9975;DHT22;5028;50.974;4.968;2023-07-30T06:47:49;16.80;99.90
9975;DHT22;5028;50.974;4.968;2023-07-30T06:50:17;16.80;99.90
9975;DHT22;5028;50.974;4.968;2023-07-30T06:52:46;16.80;99.90
9975;DHT22;5028;50.974;4.968;2023-07-30T06:55:14;16.80;99.90
9975;DHT22;5028;50.974;4.968;2023-07-30T06:57:42;16.80;99.90
9975;DHT22;5028;50.974;4.968;2023-07-30T07:00:12;16.80;99.90
9975;DHT22;5028;50.974;4.968;2023-07-30T07:02:41;16.80;99.90
9975;DHT22;5028;50.974;4.968;2023-07-30T07:05:11;16.80;99.90
9975;DHT22;5028;50.974;4.968;2023-07-30T07:07:39;16.90;99.90
9975;DHT22;5028;50.974;4.968;2023-07-30T07:10:08;16.90;99.90
9975;DHT22;5028;50.974;4.968;2023-07-30T07:12:37;16.90;99.90
9975;DHT22;5028;50.974;4.968;2023-07-30T07:15:07;16.90;99.90
9975;DHT22;5028;50.974;4.968;2023-07-30T07:17:35;16.90;99.90
9975;DHT22;5028;50.974;4.968;2023-07-30T07:20:04;16.80;99.90
9975;DHT22;5028;50.974;4.968;2023-07-30T07:22:35;16.90;99.90
9975;DHT22;5028;50.974;4.968;2023-07-30T07:25:04;17.10;99.90
9975;DHT22;5028;50.974;4.968;2023-07-30T07:27:32;17.30;99.90
9975;DHT22;5028;50.974;4.968;2023-07-30T07:30:00;17.40;99.90
9975;DHT22;5028;50.974;4.968;2023-07-30T07:32:28;17.50;99.90
9975;DHT22;5028;50.974;4.968;2023-07-30T07:34:57;17.50;99.90
9975;DHT22;5028;50.974;4.968;2023-07-30T07:37:25;17.60;99.90
9975;DHT22;5028;50.974;4.968;2023-07-30T07:39:54;17.70;99.90
9975;DHT22;5028;50.974;4.968;2023-07-30T07:42:23;17.70;99.90
9975;DHT22;5028;50.974;4.968;2023-07-30T07:44:51;17.80;99.90
9975;DHT22;5028;50.974;4.968;2023-07-30T07:47:19;18.00;99.90
9975;DHT22;5028;50.974;4.968;2023-07-30T07:49:47;18.00;99.90
9975;DHT22;5028;50.974;4.968;2023-07-30T07:52:16;18.00;99.90
9975;DHT22;5028;50.974;4.968;2023-07-30T07:54:44;18.20;99.90
9975;DHT22;5028;50.974;4.968;2023-07-30T07:57:14;18.30;99.90
9975;DHT22;5028;50.974;4.968;2023-07-30T07:59:42;18.30;99.90
9975;DHT22;5028;50.974;4.968;2023-07-30T08:02:11;18.30;99.90
9975;DHT22;5028;50.974;4.968;2023-07-30T08:04:40;18.20;99.90
9975;DHT22;5028;50.974;4.968;2023-07-30T08:07:08;18.20;99.90
9975;DHT22;5028;50.974;4.968;2023-07-30T08:09:36;18.20;99.90
9975;DHT22;5028;50.974;4.968;2023-07-30T08:12:05;18.20;99.90
9975;DHT22;5028;50.974;4.968;2023-07-30T08:14:35;18.30;99.90
9975;DHT22;5028;50.974;4.968;2023-07-30T08:17:03;18.40;99.90
9975;DHT22;5028;50.974;4.968;2023-07-30T08:19:32;18.60;99.90
9975;DHT22;5028;50.974;4.968;2023-07-30T08:22:00;18.70;99.90
9975;DHT22;5028;50.974;4.968;2023-07-30T08:24:30;18.90;99.90
9975;DHT22;5028;50.974;4.968;2023-07-30T08:26:58;19.20;99.90
9975;DHT22;5028;50.974;4.968;2023-07-30T08:29:27;19.20;99.90
9975;DHT22;5028;50.974;4.968;2023-07-30T08:31:56;19.10;99.90
9975;DHT22;5028;50.974;4.968;2023-07-30T08:34:25;19.20;99.90
9975;DHT22;5028;50.974;4.968;2023-07-30T08:36:53;19.30;99.90
9975;DHT22;5028;50.974;4.968;2023-07-30T08:39:21;19.40;99.90
9975;DHT22;5028;50.974;4.968;2023-07-30T08:41:49;19.30;99.90
9975;DHT22;5028;50.974;4.968;2023-07-30T08:44:18;19.30;99.90
9975;DHT22;5028;50.974;4.968;2023-07-30T08:46:46;19.20;99.90
9975;DHT22;5028;50.974;4.968;2023-07-30T08:49:15;19.20;99.90
9975;DHT22;5028;50.974;4.968;2023-07-30T08:51:44;19.10;99.90
9975;DHT22;5028;50.974;4.968;2023-07-30T08:54:14;18.90;99.90
9975;DHT22;5028;50.974;4.968;2023-07-30T08:56:43;19.00;99.90
9975;DHT22;5028;50.974;4.968;2023-07-30T08:59:12;19.10;99.90
9975;DHT22;5028;50.974;4.968;2023-07-30T09:01:43;19.20;99.90
9975;DHT22;5028;50.974;4.968;2023-07-30T09:04:15;19.20;99.90
9975;DHT22;5028;50.974;4.968;2023-07-30T09:06:48;19.20;99.90
9975;DHT22;5028;50.974;4.968;2023-07-30T09:09:19;19.20;99.90
9975;DHT22;5028;50.974;4.968;2023-07-30T09:11:51;19.20;99.90
9975;DHT22;5028;50.974;4.968;2023-07-30T09:14:20;19.20;99.90
9975;DHT22;5028;50.974;4.968;2023-07-30T09:16:56;19.20;99.90
9975;DHT22;5028;50.974;4.968;2023-07-30T09:19:26;19.20;99.90
9975;DHT22;5028;50.974;4.968;2023-07-30T09:21:54;19.40;99.90
9975;DHT22;5028;50.974;4.968;2023-07-30T09:24:23;19.40;99.90
9975;DHT22;5028;50.974;4.968;2023-07-30T09:26:51;19.40;99.90
9975;DHT22;5028;50.974;4.968;2023-07-30T09:29:19;19.30;99.90
9975;DHT22;5028;50.974;4.968;2023-07-30T09:31:49;19.30;99.90
9975;DHT22;5028;50.974;4.968;2023-07-30T09:34:22;19.30;99.90
9975;DHT22;5028;50.974;4.968;2023-07-30T09:36:52;19.30;99.90
9975;DHT22;5028;50.974;4.968;2023-07-30T09:39:22;19.30;99.90
9975;DHT22;5028;50.974;4.968;2023-07-30T09:41:52;19.20;99.90
9975;DHT22;5028;50.974;4.968;2023-07-30T09:44:21;18.80;99.90
9975;DHT22;5028;50.974;4.968;2023-07-30T09:46:50;18.40;99.90
9975;DHT22;5028;50.974;4.968;2023-07-30T09:49:18;18.10;99.90
9975;DHT22;5028;50.974;4.968;2023-07-30T09:51:47;18.00;99.90
9975;DHT22;5028;50.974;4.968;2023-07-30T09:54:17;17.90;99.90
9975;DHT22;5028;50.974;4.968;2023-07-30T09:56:46;17.80;99.90
9975;DHT22;5028;50.974;4.968;2023-07-30T09:59:14;17.70;99.90
9975;DHT22;5028;50.974;4.968;2023-07-30T10:01:45;17.60;99.90
9975;DHT22;5028;50.974;4.968;2023-07-30T10:04:15;17.70;99.90
9975;DHT22;5028;50.974;4.968;2023-07-30T10:06:49;17.80;99.90
9975;DHT22;5028;50.974;4.968;2023-07-30T10:09:21;17.80;99.90
9975;DHT22;5028;50.974;4.968;2023-07-30T10:11:52;17.70;99.90
9975;DHT22;5028;50.974;4.968;2023-07-30T10:17:05;17.60;99.90
9975;DHT22;5028;50.974;4.968;2023-07-30T10:19:33;17.50;99.90
9975;DHT22;5028;50.974;4.968;2023-07-30T10:22:20;17.40;99.90
9975;DHT22;5028;50.974;4.968;2023-07-30T10:25:00;17.60;99.90
9975;DHT22;5028;50.974;4.968;2023-07-30T10:27:37;17.70;99.90
9975;DHT22;5028;50.974;4.968;2023-07-30T10:30:10;18.00;99.90
9975;DHT22;5028;50.974;4.968;2023-07-30T10:32:39;18.10;99.90
9975;DHT22;5028;50.974;4.968;2023-07-30T10:35:08;18.00;99.90
9975;DHT22;5028;50.974;4.968;2023-07-30T10:37:45;17.90;99.90
9975;DHT22;5028;50.974;4.968;2023-07-30T10:40:19;17.70;99.90
9975;DHT22;5028;50.974;4.968;2023-07-30T10:42:47;17.50;99.90
9975;DHT22;5028;50.974;4.968;2023-07-30T10:45:16;17.30;99.90
9975;DHT22;5028;50.974;4.968;2023-07-30T10:47:44;17.30;99.90
9975;DHT22;5028;50.974;4.968;2023-07-30T10:50:12;17.30;99.90
9975;DHT22;5028;50.974;4.968;2023-07-30T10:52:41;17.20;99.90
9975;DHT22;5028;50.974;4.968;2023-07-30T10:55:10;17.20;99.90
9975;DHT22;5028;50.974;4.968;2023-07-30T10:57:39;17.40;99.90
9975;DHT22;5028;50.974;4.968;2023-07-30T11:00:11;17.50;99.90
9975;DHT22;5028;50.974;4.968;2023-07-30T11:02:39;17.70;99.90
9975;DHT22;5028;50.974;4.968;2023-07-30T11:05:14;17.90;99.90
9975;DHT22;5028;50.974;4.968;2023-07-30T11:07:49;18.30;99.90
9975;DHT22;5028;50.974;4.968;2023-07-30T11:10:18;18.90;99.90
9975;DHT22;5028;50.974;4.968;2023-07-30T11:12:48;19.30;99.90
9975;DHT22;5028;50.974;4.968;2023-07-30T11:15:17;19.70;99.90
9975;DHT22;5028;50.974;4.968;2023-07-30T11:17:45;20.10;99.90
9975;DHT22;5028;50.974;4.968;2023-07-30T11:20:31;20.50;99.90
9975;DHT22;5028;50.974;4.968;2023-07-30T11:23:00;20.90;99.90
9975;DHT22;5028;50.974;4.968;2023-07-30T11:25:32;21.30;99.90
9975;DHT22;5028;50.974;4.968;2023-07-30T11:28:01;21.60;99.90
9975;DHT22;5028;50.974;4.968;2023-07-30T11:30:31;21.40;99.90
9975;DHT22;5028;50.974;4.968;2023-07-30T11:33:00;21.60;99.90
9975;DHT22;5028;50.974;4.968;2023-07-30T11:35:28;21.70;99.90
9975;DHT22;5028;50.974;4.968;2023-07-30T11:37:57;21.50;99.90
9975;DHT22;5028;50.974;4.968;2023-07-30T11:40:25;21.40;99.90
9975;DHT22;5028;50.974;4.968;2023-07-30T11:42:54;21.60;99.90
9975;DHT22;5028;50.974;4.968;2023-07-30T11:45:24;22.00;99.90
9975;DHT22;5028;50.974;4.968;2023-07-30T11:47:52;22.30;99.90
9975;DHT22;5028;50.974;4.968;2023-07-30T11:50:21;22.40;99.90
9975;DHT22;5028;50.974;4.968;2023-07-30T11:52:53;22.10;99.90
9975;DHT22;5028;50.974;4.968;2023-07-30T11:55:22;22.00;99.90
9975;DHT22;5028;50.974;4.968;2023-07-30T11:57:51;22.10;99.90
9975;DHT22;5028;50.974;4.968;2023-07-30T12:00:21;22.20;99.90
9975;DHT22;5028;50.974;4.968;2023-07-30T12:02:50;21.90;99.90
9975;DHT22;5028;50.974;4.968;2023-07-30T12:05:19;21.90;99.90
9975;DHT22;5028;50.974;4.968;2023-07-30T12:07:59;21.70;99.90
9975;DHT22;5028;50.974;4.968;2023-07-30T12:10:41;21.50;99.90
9975;DHT22;5028;50.974;4.968;2023-07-30T12:13:15;21.30;99.90
9975;DHT22;5028;50.974;4.968;2023-07-30T12:15:46;21.30;99.90
9975;DHT22;5028;50.974;4.968;2023-07-30T12:18:20;21.70;99.90
9975;DHT22;5028;50.974;4.968;2023-07-30T12:20:49;22.30;99.90
9975;DHT22;5028;50.974;4.968;2023-07-30T12:23:18;22.60;99.90
9975;DHT22;5028;50.974;4.968;2023-07-30T12:25:46;23.20;99.90
9975;DHT22;5028;50.974;4.968;2023-07-30T12:28:15;23.40;99.90
9975;DHT22;5028;50.974;4.968;2023-07-30T12:30:43;23.40;99.90
9975;DHT22;5028;50.974;4.968;2023-07-30T12:33:11;23.60;99.90
9975;DHT22;5028;50.974;4.968;2023-07-30T12:35:41;23.60;99.90
9975;DHT22;5028;50.974;4.968;2023-07-30T12:38:10;23.80;99.90
9975;DHT22;5028;50.974;4.968;2023-07-30T12:40:38;23.60;99.90
9975;DHT22;5028;50.974;4.968;2023-07-30T12:43:06;23.80;99.90
9975;DHT22;5028;50.974;4.968;2023-07-30T12:45:35;24.60;99.90
9975;DHT22;5028;50.974;4.968;2023-07-30T12:48:05;25.00;99.90
9975;DHT22;5028;50.974;4.968;2023-07-30T12:50:35;25.10;99.90
9975;DHT22;5028;50.974;4.968;2023-07-30T12:53:04;25.30;99.90
9975;DHT22;5028;50.974;4.968;2023-07-30T12:55:32;24.80;99.90
9975;DHT22;5028;50.974;4.968;2023-07-30T12:58:01;24.30;99.90
9975;DHT22;5028;50.974;4.968;2023-07-30T13:00:30;23.80;99.90
9975;DHT22;5028;50.974;4.968;2023-07-30T13:02:58;23.90;99.90
9975;DHT22;5028;50.974;4.968;2023-07-30T13:05:26;24.10;99.90
9975;DHT22;5028;50.974;4.968;2023-07-30T13:07:55;24.50;99.90
9975;DHT22;5028;50.974;4.968;2023-07-30T13:10:24;24.50;99.90
9975;DHT22;5028;50.974;4.968;2023-07-30T13:12:52;23.80;99.90
9975;DHT22;5028;50.974;4.968;2023-07-30T13:15:21;23.60;99.90
9975;DHT22;5028;50.974;4.968;2023-07-30T13:17:49;23.40;99.90
9975;DHT22;5028;50.974;4.968;2023-07-30T13:20:17;23.50;99.90
9975;DHT22;5028;50.974;4.968;2023-07-30T13:22:46;23.80;99.90
9975;DHT22;5028;50.974;4.968;2023-07-30T13:25:14;23.70;99.90
9975;DHT22;5028;50.974;4.968;2023-07-30T13:27:44;23.40;99.90
9975;DHT22;5028;50.974;4.968;2023-07-30T13:30:12;23.10;99.90
9975;DHT22;5028;50.974;4.968;2023-07-30T13:32:41;23.00;99.90
9975;DHT22;5028;50.974;4.968;2023-07-30T13:35:09;23.00;99.90
9975;DHT22;5028;50.974;4.968;2023-07-30T13:37:37;23.20;99.90
9975;DHT22;5028;50.974;4.968;2023-07-30T13:40:06;23.10;99.90
9975;DHT22;5028;50.974;4.968;2023-07-30T13:42:35;23.10;99.90
9975;DHT22;5028;50.974;4.968;2023-07-30T13:45:05;23.30;99.90
9975;DHT22;5028;50.974;4.968;2023-07-30T13:47:34;23.50;99.90
9975;DHT22;5028;50.974;4.968;2023-07-30T13:50:03;23.90;99.90
9975;DHT22;5028;50.974;4.968;2023-07-30T13:52:32;23.90;99.90
9975;DHT22;5028;50.974;4.968;2023-07-30T13:55:00;24.00;99.90
9975;DHT22;5028;50.974;4.968;2023-07-30T13:57:30;24.40;99.90
9975;DHT22;5028;50.974;4.968;2023-07-30T14:00:04;24.60;99.90
9975;DHT22;5028;50.974;4.968;2023-07-30T14:02:33;24.40;99.90
9975;DHT22;5028;50.974;4.968;2023-07-30T14:05:01;23.80;99.90
9975;DHT22;5028;50.974;4.968;2023-07-30T14:07:29;23.90;99.90
9975;DHT22;5028;50.974;4.968;2023-07-30T14:09:58;24.20;99.90
9975;DHT22;5028;50.974;4.968;2023-07-30T14:12:26;24.00;99.90
9975;DHT22;5028;50.974;4.968;2023-07-30T14:14:54;23.70;99.90
9975;DHT22;5028;50.974;4.968;2023-07-30T14:17:24;24.10;99.90
9975;DHT22;5028;50.974;4.968;2023-07-30T14:19:52;24.50;99.90
9975;DHT22;5028;50.974;4.968;2023-07-30T14:22:22;24.30;99.90
9975;DHT22;5028;50.974;4.968;2023-07-30T14:24:50;24.10;99.90
9975;DHT22;5028;50.974;4.968;2023-07-30T14:27:19;24.30;99.90
9975;DHT22;5028;50.974;4.968;2023-07-30T14:29:47;24.50;99.90
9975;DHT22;5028;50.974;4.968;2023-07-30T14:32:15;24.40;99.90
9975;DHT22;5028;50.974;4.968;2023-07-30T14:34:45;24.50;99.90
9975;DHT22;5028;50.974;4.968;2023-07-30T14:37:14;24.70;99.90
9975;DHT22;5028;50.974;4.968;2023-07-30T14:39:42;24.60;99.90
9975;DHT22;5028;50.974;4.968;2023-07-30T14:42:11;24.80;99.90
9975;DHT22;5028;50.974;4.968;2023-07-30T14:44:39;24.80;99.90
9975;DHT22;5028;50.974;4.968;2023-07-30T14:47:07;24.50;99.90
9975;DHT22;5028;50.974;4.968;2023-07-30T14:49:37;23.90;99.90
9975;DHT22;5028;50.974;4.968;2023-07-30T14:52:07;23.60;99.90
9975;DHT22;5028;50.974;4.968;2023-07-30T14:54:36;23.40;99.90
9975;DHT22;5028;50.974;4.968;2023-07-30T14:57:05;23.30;99.90
9975;DHT22;5028;50.974;4.968;2023-07-30T14:59:33;23.10;99.90
9975;DHT22;5028;50.974;4.968;2023-07-30T15:02:02;22.90;99.90
9975;DHT22;5028;50.974;4.968;2023-07-30T15:04:30;22.60;99.90
9975;DHT22;5028;50.974;4.968;2023-07-30T15:06:58;22.50;99.90
9975;DHT22;5028;50.974;4.968;2023-07-30T15:09:28;22.40;99.90
9975;DHT22;5028;50.974;4.968;2023-07-30T15:12:01;22.50;99.90
9975;DHT22;5028;50.974;4.968;2023-07-30T15:14:29;22.70;99.90
9975;DHT22;5028;50.974;4.968;2023-07-30T15:16:57;22.80;99.90
9975;DHT22;5028;50.974;4.968;2023-07-30T15:19:25;22.80;99.90
9975;DHT22;5028;50.974;4.968;2023-07-30T15:21:53;22.80;99.90
9975;DHT22;5028;50.974;4.968;2023-07-30T15:24:21;22.60;99.90
9975;DHT22;5028;50.974;4.968;2023-07-30T15:26:51;22.50;99.90
9975;DHT22;5028;50.974;4.968;2023-07-30T15:29:20;22.40;99.90
9975;DHT22;5028;50.974;4.968;2023-07-30T15:31:49;22.30;99.90
9975;DHT22;5028;50.974;4.968;2023-07-30T15:34:17;22.20;99.90
9975;DHT22;5028;50.974;4.968;2023-07-30T15:36:45;22.10;99.90
9975;DHT22;5028;50.974;4.968;2023-07-30T15:39:14;21.90;99.90
9975;DHT22;5028;50.974;4.968;2023-07-30T15:41:42;21.80;99.90
9975;DHT22;5028;50.974;4.968;2023-07-30T15:44:11;21.70;99.90
9975;DHT22;5028;50.974;4.968;2023-07-30T15:46:40;21.60;99.90
9975;DHT22;5028;50.974;4.968;2023-07-30T15:49:11;21.50;99.90
9975;DHT22;5028;50.974;4.968;2023-07-30T15:51:40;21.30;99.90
9975;DHT22;5028;50.974;4.968;2023-07-30T15:54:08;21.00;99.90
9975;DHT22;5028;50.974;4.968;2023-07-30T15:56:37;20.50;99.90
9975;DHT22;5028;50.974;4.968;2023-07-30T15:59:05;20.10;99.90
9975;DHT22;5028;50.974;4.968;2023-07-30T16:01:36;19.70;99.90
9975;DHT22;5028;50.974;4.968;2023-07-30T16:04:04;19.50;99.90
9975;DHT22;5028;50.974;4.968;2023-07-30T16:06:33;19.10;99.90
9975;DHT22;5028;50.974;4.968;2023-07-30T16:09:02;18.90;99.90
9975;DHT22;5028;50.974;4.968;2023-07-30T16:11:30;18.70;99.90
9975;DHT22;5028;50.974;4.968;2023-07-30T16:14:00;18.50;99.90
9975;DHT22;5028;50.974;4.968;2023-07-30T16:16:28;18.40;99.90